Time;durP1;ratioP1;P1;durP2;ratioP2;P2;SDS_P1;SDS_P2;PMS_P1;PMS_P2;Temp;Humidity;BMP_temperature;BMP_pressure;BME280_temperature;BME280_humidity;BME280_pressure;Samples;Min_cycle;Max_cycle;Signal;HPM_P1;HPM_P2
2022/08/01 00:01:24;;;;;;;5.65;2.40;;;24.60;55.90;;;;;;5094086;28;20024;-71
2022/08/01 00:03:50;;;;;;;4.47;2.38;;;24.60;56.20;;;;;;5099625;28;20019;-71
2022/08/01 00:06:16;;;;;;;6.35;2.78;;;24.50;56.40;;;;;;5114274;28;20072;-71
2022/08/01 00:08:42;;;;;;;5.60;2.95;;;24.50;57.00;;;;;;5114292;28;20145;-71
2022/08/01 00:11:09;;;;;;;5.20;2.92;;;24.50;57.00;;;;;;5112909;28;20024;-71
2022/08/01 00:13:35;;;;;;;2.58;2.13;;;24.50;56.70;;;;;;5114185;28;20443;-71
2022/08/01 00:16:01;;;;;;;4.53;2.85;;;24.50;56.60;;;;;;5114093;28;20019;-71
2022/08/01 00:18:27;;;;;;;12.50;2.30;;;24.40;57.10;;;;;;5114076;28;20099;-71
2022/08/01 00:20:53;;;;;;;6.05;2.67;;;24.40;57.00;;;;;;5112510;28;20052;-71
2022/08/01 00:23:19;;;;;;;2.50;2.10;;;24.40;57.00;;;;;;5113740;28;20027;-71
2022/08/01 00:25:44;;;;;;;2.85;2.50;;;24.40;57.00;;;;;;5113917;28;20051;-71
2022/08/01 00:28:11;;;;;;;2.88;2.58;;;24.40;57.00;;;;;;5113948;28;20023;-71
2022/08/01 00:30:36;;;;;;;8.52;2.47;;;24.40;56.90;;;;;;5113918;28;20543;-71
2022/08/01 00:33:03;;;;;;;3.05;2.75;;;24.40;56.80;;;;;;5112437;28;20153;-71
2022/08/01 00:35:28;;;;;;;2.50;2.00;;;24.40;57.00;;;;;;5093547;28;20388;-71
2022/08/01 00:37:54;;;;;;;4.35;2.97;;;24.40;57.00;;;;;;5093343;28;20024;-71
2022/08/01 00:40:20;;;;;;;2.65;2.17;;;24.30;57.10;;;;;;5093286;28;20030;-71
2022/08/01 00:42:46;;;;;;;3.00;2.63;;;24.30;57.10;;;;;;5105770;28;20518;-71
2022/08/01 00:45:12;;;;;;;2.50;2.30;;;24.30;57.00;;;;;;5113660;28;20024;-70
2022/08/01 00:47:38;;;;;;;3.50;2.80;;;24.30;57.20;;;;;;5113754;28;20121;-71
2022/08/01 00:50:05;;;;;;;2.75;2.30;;;24.30;57.80;;;;;;5113563;28;20043;-71
2022/08/01 00:52:32;;;;;;;3.53;2.33;;;24.20;57.80;;;;;;5113518;28;20023;-70
2022/08/01 00:54:58;;;;;;;2.83;2.00;;;24.20;57.60;;;;;;5113489;28;20030;-70
2022/08/01 00:57:24;;;;;;;4.18;1.98;;;24.20;57.40;;;;;;5113525;28;20023;-71
2022/08/01 00:59:50;;;;;;;2.42;1.83;;;24.20;57.10;;;;;;5113280;28;20028;-71
2022/08/01 01:02:17;;;;;;;3.00;2.03;;;24.20;56.80;;;;;;5113372;28;20388;-70
2022/08/01 01:04:43;;;;;;;2.97;2.50;;;24.20;56.80;;;;;;5098276;28;20131;-71
2022/08/01 01:07:28;;;;;;;4.13;2.92;;;24.20;57.00;;;;;;5093247;28;20481;-70
2022/08/01 01:10:08;;;;;;;4.75;3.38;;;24.20;57.40;;;;;;5092901;28;20028;-71
2022/08/01 01:12:34;;;;;;;5.05;2.72;;;24.20;57.90;;;;;;5092920;28;20020;-71
2022/08/01 01:15:13;;;;;;;8.27;2.13;;;24.20;57.40;;;;;;5092799;28;20111;-71
2022/08/01 01:18:02;;;;;;;4.15;2.40;;;24.20;57.40;;;;;;5092895;28;20103;-71
2022/08/01 01:20:31;;;;;;;4.07;2.60;;;24.10;57.40;;;;;;5084408;28;20040;-71
2022/08/01 01:23:24;;;;;;;4.13;2.83;;;24.10;57.70;;;;;;5092750;28;20055;-71
2022/08/01 01:26:21;;;;;;;5.68;2.95;;;24.10;57.70;;;;;;5092748;28;20381;-71
2022/08/01 01:29:08;;;;;;;6.15;2.65;;;24.10;57.40;;;;;;5092801;28;20590;-71
2022/08/01 01:31:49;;;;;;;2.42;2.10;;;24.10;57.50;;;;;;5092736;28;20020;-71
2022/08/01 01:34:19;;;;;;;3.00;2.40;;;24.10;57.60;;;;;;5101850;28;20032;-71
2022/08/01 01:36:47;;;;;;;3.25;1.98;;;24.10;57.80;;;;;;5114025;28;20035;-71
2022/08/01 01:39:14;;;;;;;4.25;2.60;;;24.10;57.70;;;;;;5096580;28;20024;-71
2022/08/01 01:41:42;;;;;;;4.57;2.72;;;24.10;57.80;;;;;;5095975;28;20016;-71
2022/08/01 01:44:10;;;;;;;3.58;2.30;;;24.10;57.80;;;;;;5116550;28;20020;-71
2022/08/01 01:46:36;;;;;;;3.55;2.10;;;24.10;57.70;;;;;;5114948;28;20024;-71
2022/08/01 01:49:04;;;;;;;2.78;1.98;;;24.10;57.70;;;;;;5115535;28;20020;-71
2022/08/01 01:51:31;;;;;;;2.42;2.10;;;24.10;57.70;;;;;;5115449;28;20019;-70
2022/08/01 01:53:59;;;;;;;3.10;2.53;;;24.00;57.70;;;;;;5116684;28;20020;-71
2022/08/01 01:56:26;;;;;;;3.33;2.78;;;24.00;57.90;;;;;;5116650;28;20016;-71
2022/08/01 01:58:57;;;;;;;3.90;2.40;;;24.00;58.10;;;;;;5115213;28;20031;-71
2022/08/01 02:01:28;;;;;;;3.63;2.85;;;24.00;58.10;;;;;;5116623;28;20020;-71
2022/08/01 02:03:56;;;;;;;3.28;2.03;;;24.00;57.90;;;;;;5115296;28;20468;-71
2022/08/01 02:06:25;;;;;;;2.40;2.20;;;24.00;57.90;;;;;;5116492;28;20027;-71
2022/08/01 02:08:53;;;;;;;3.65;2.88;;;24.00;57.90;;;;;;5116481;28;20015;-71
2022/08/01 02:11:22;;;;;;;6.43;2.80;;;23.90;57.80;;;;;;5116357;28;20103;-71
2022/08/01 02:14:00;;;;;;;2.60;2.08;;;23.90;57.90;;;;;;5114388;28;20020;-71
2022/08/01 02:16:35;;;;;;;4.15;1.90;;;23.90;58.00;;;;;;5116254;28;20423;-71
2022/08/01 02:19:01;;;;;;;2.35;2.10;;;23.90;58.10;;;;;;5116206;28;20023;-71
2022/08/01 02:21:32;;;;;;;2.70;2.20;;;23.90;57.90;;;;;;5115966;28;20046;-71
2022/08/01 02:24:08;;;;;;;8.40;2.78;;;23.80;57.80;;;;;;5116163;28;20092;-71
2022/08/01 02:26:38;;;;;;;2.35;2.00;;;23.80;57.90;;;;;;5116136;28;20027;-71
2022/08/01 02:29:07;;;;;;;4.30;2.40;;;23.80;57.80;;;;;;5116116;28;20024;-71
2022/08/01 02:31:38;;;;;;;2.47;2.15;;;23.80;57.70;;;;;;5116303;28;20015;-71
2022/08/01 02:34:07;;;;;;;8.43;2.22;;;23.70;57.40;;;;;;5116009;28;20020;-71
2022/08/01 02:36:35;;;;;;;2.30;1.85;;;23.70;57.30;;;;;;5102701;28;20065;-70
2022/08/01 02:39:04;;;;;;;3.13;1.90;;;23.70;57.20;;;;;;5095324;28;20354;-71
2022/08/01 02:41:33;;;;;;;2.70;2.22;;;23.60;57.00;;;;;;5095397;28;20021;-71
2022/08/01 02:44:03;;;;;;;5.25;2.25;;;23.60;57.00;;;;;;5095134;28;20496;-71
2022/08/01 02:46:38;;;;;;;5.40;2.45;;;23.60;57.20;;;;;;5095084;28;20024;-71
2022/08/01 02:49:08;;;;;;;11.38;2.35;;;23.60;57.20;;;;;;5095252;28;20025;-71
2022/08/01 02:51:36;;;;;;;4.60;2.33;;;23.60;57.20;;;;;;5093925;28;20035;-71
2022/08/01 02:54:04;;;;;;;3.60;2.10;;;23.50;57.10;;;;;;5095168;28;20020;-71
2022/08/01 02:56:35;;;;;;;3.22;2.10;;;23.50;57.10;;;;;;5093747;28;20097;-71
2022/08/01 02:59:07;;;;;;;3.28;2.28;;;23.50;56.90;;;;;;5094944;28;20073;-71
2022/08/01 03:01:35;;;;;;;10.23;2.83;;;23.50;56.80;;;;;;5094920;28;20385;-71
2022/08/01 03:04:04;;;;;;;3.08;2.30;;;23.40;56.80;;;;;;5093728;28;20028;-71
2022/08/01 03:06:32;;;;;;;2.50;2.05;;;23.40;56.80;;;;;;5094863;28;20461;-71
2022/08/01 03:09:01;;;;;;;2.92;2.42;;;23.40;56.80;;;;;;5094892;28;20028;-71
2022/08/01 03:11:29;;;;;;;5.88;2.35;;;23.40;56.90;;;;;;5095086;28;20028;-71
2022/08/01 03:13:58;;;;;;;4.18;2.28;;;23.40;57.10;;;;;;5100480;28;20110;-71
2022/08/01 03:16:26;;;;;;;4.90;2.50;;;23.40;57.00;;;;;;5113248;28;20070;-70
2022/08/01 03:18:56;;;;;;;4.50;2.50;;;23.40;56.90;;;;;;5114991;28;20104;-71
2022/08/01 03:21:24;;;;;;;2.85;2.35;;;23.40;56.80;;;;;;5114808;28;20114;-71
2022/08/01 03:23:56;;;;;;;5.03;2.20;;;23.40;57.10;;;;;;5114948;27;20016;-71
2022/08/01 03:26:27;;;;;;;5.47;2.58;;;23.40;57.10;;;;;;5114920;28;20055;-71
2022/08/01 03:28:56;;;;;;;4.78;2.60;;;23.40;56.90;;;;;;5114771;28;20028;-71
2022/08/01 03:31:23;;;;;;;4.72;2.67;;;23.40;57.10;;;;;;5114671;28;20020;-70
2022/08/01 03:33:49;;;;;;;7.07;2.50;;;23.30;57.10;;;;;;5111137;28;20028;-71
2022/08/01 03:36:16;;;;;;;3.95;2.30;;;23.40;57.20;;;;;;5094229;28;20035;-70
2022/08/01 03:38:45;;;;;;;3.45;2.17;;;23.40;57.20;;;;;;5092834;28;20077;-71
2022/08/01 03:41:20;;;;;;;3.10;2.17;;;23.40;57.30;;;;;;5093829;28;20039;-71
2022/08/01 03:44:02;;;;;;;6.55;2.60;;;23.40;57.40;;;;;;5095278;28;20089;-71
2022/08/01 03:47:05;;;;;;;3.80;2.13;;;23.40;57.50;;;;;;5094093;28;20024;-70
2022/08/01 03:49:34;;;;;;;10.07;2.53;;;23.40;57.50;;;;;;5073039;28;20036;-71
2022/08/01 03:52:06;;;;;;;3.55;2.40;;;23.40;57.40;;;;;;5093950;28;20084;-71
2022/08/01 03:54:35;;;;;;;5.35;2.70;;;23.40;58.20;;;;;;5093976;28;20024;-71
2022/08/01 03:57:02;;;;;;;7.70;2.80;;;23.40;57.50;;;;;;5093283;28;20027;-71
2022/08/01 03:59:30;;;;;;;3.78;2.83;;;23.40;57.80;;;;;;5093569;28;20055;-71
2022/08/01 04:01:59;;;;;;;6.20;3.20;;;23.40;57.80;;;;;;5093724;28;20024;-71
2022/08/01 04:04:25;;;;;;;5.18;3.10;;;23.50;57.80;;;;;;5093628;28;20081;-71
2022/08/01 04:06:54;;;;;;;4.43;2.95;;;23.50;58.10;;;;;;5092323;28;20028;-71
2022/08/01 04:09:21;;;;;;;4.97;2.72;;;23.50;58.20;;;;;;5093483;28;20069;-70
2022/08/01 04:11:47;;;;;;;5.93;3.03;;;23.50;58.10;;;;;;5094002;27;20031;-71
2022/08/01 04:14:13;;;;;;;10.55;3.75;;;23.50;58.10;;;;;;5093606;28;20028;-71
2022/08/01 04:16:39;;;;;;;6.28;3.80;;;23.50;58.50;;;;;;5093475;28;20142;-70
2022/08/01 04:19:08;;;;;;;5.32;4.18;;;23.50;58.50;;;;;;5093383;28;20459;-71
2022/08/01 04:21:35;;;;;;;9.43;4.18;;;23.50;58.40;;;;;;5092874;28;20040;-71
2022/08/01 04:24:17;;;;;;;7.85;3.97;;;23.40;58.30;;;;;;5092466;28;20089;-70
2022/08/01 04:26:46;;;;;;;9.60;4.20;;;23.40;58.40;;;;;;5092650;28;20016;-70
2022/08/01 04:29:15;;;;;;;8.00;3.70;;;23.40;58.20;;;;;;5091202;28;20031;-71
2022/08/01 04:31:44;;;;;;;7.30;4.05;;;23.40;58.30;;;;;;5092523;28;20043;-70
2022/08/01 04:34:14;;;;;;;6.38;3.97;;;23.40;58.40;;;;;;5092670;28;20058;-70
2022/08/01 04:36:44;;;;;;;8.65;4.22;;;23.30;58.40;;;;;;5094147;28;20407;-71
2022/08/01 04:39:11;;;;;;;11.93;4.78;;;23.30;58.40;;;;;;5131927;28;20095;-71
2022/08/01 04:41:39;;;;;;;6.55;4.40;;;23.30;58.50;;;;;;5123742;28;20020;-71
2022/08/01 04:44:06;;;;;;;8.60;4.03;;;23.30;58.60;;;;;;5112766;28;20020;-71
2022/08/01 04:46:34;;;;;;;9.48;4.38;;;23.30;58.60;;;;;;5111202;28;20046;-71
2022/08/01 04:49:01;;;;;;;8.40;4.85;;;23.20;58.90;;;;;;5127777;28;20099;-71
2022/08/01 04:51:27;;;;;;;8.40;4.10;;;23.20;59.10;;;;;;5116061;28;20506;-71
2022/08/01 04:53:53;;;;;;;8.13;4.13;;;23.20;59.10;;;;;;5110368;28;20122;-71
2022/08/01 04:56:20;;;;;;;7.28;4.13;;;23.20;59.20;;;;;;5092124;28;20055;-71
2022/08/01 04:58:46;;;;;;;6.97;3.92;;;23.30;59.50;;;;;;5092105;28;20020;-71
2022/08/01 05:01:12;;;;;;;5.43;3.75;;;23.30;59.50;;;;;;5092042;28;20032;-71
2022/08/01 05:03:38;;;;;;;8.70;4.07;;;23.40;59.60;;;;;;5092037;28;20477;-70
2022/08/01 05:06:04;;;;;;;4.63;3.70;;;23.40;59.60;;;;;;5125588;28;20034;-71
2022/08/01 05:08:30;;;;;;;8.40;4.05;;;23.50;59.50;;;;;;5131651;27;20015;-71
2022/08/01 05:10:56;;;;;;;12.43;3.70;;;23.60;59.50;;;;;;5114797;28;20062;-70
2022/08/01 05:13:21;;;;;;;6.72;3.70;;;23.70;59.50;;;;;;5093363;28;20106;-71
2022/08/01 05:15:47;;;;;;;7.57;3.78;;;23.80;59.20;;;;;;5092008;28;20028;-71
2022/08/01 05:18:13;;;;;;;6.97;3.50;;;23.90;58.90;;;;;;5090632;28;20020;-71
2022/08/01 05:20:40;;;;;;;9.90;3.95;;;24.00;58.70;;;;;;5040564;28;1410362;-71
2022/08/01 05:23:06;;;;;;;10.70;3.63;;;24.00;58.60;;;;;;5092982;28;20047;-70
2022/08/01 05:25:33;;;;;;;11.95;4.13;;;24.10;58.50;;;;;;5092602;28;20024;-71
2022/08/01 05:27:58;;;;;;;5.75;3.70;;;24.20;58.30;;;;;;5092560;28;20020;-70
2022/08/01 05:30:24;;;;;;;12.60;4.90;;;24.30;58.20;;;;;;5108931;28;20508;-70
2022/08/01 05:32:50;;;;;;;6.40;4.10;;;24.30;58.00;;;;;;5093093;28;20038;-70
2022/08/01 05:35:16;;;;;;;6.82;3.60;;;24.40;57.90;;;;;;5092553;28;20032;-71
2022/08/01 05:37:42;;;;;;;7.55;4.40;;;24.40;57.60;;;;;;5092451;28;20028;-71
2022/08/01 05:40:08;;;;;;;15.43;4.35;;;24.50;57.60;;;;;;5092418;28;20490;-70
2022/08/01 05:42:34;;;;;;;7.10;4.03;;;24.60;57.60;;;;;;5091528;28;20051;-70
2022/08/01 05:44:59;;;;;;;6.80;3.85;;;24.60;57.20;;;;;;5096083;28;20476;-70
2022/08/01 05:47:25;;;;;;;9.50;4.28;;;24.60;57.00;;;;;;5112574;28;20059;-70
2022/08/01 05:49:51;;;;;;;13.27;4.18;;;24.70;56.90;;;;;;5111377;28;20019;-71
2022/08/01 05:52:17;;;;;;;5.53;3.63;;;24.70;56.80;;;;;;5094046;28;20106;-71
2022/08/01 05:54:42;;;;;;;12.60;4.45;;;24.70;56.50;;;;;;5092615;28;20055;-71
2022/08/01 05:57:08;;;;;;;6.47;4.20;;;24.70;56.00;;;;;;5093504;28;20117;-71
2022/08/01 05:59:34;;;;;;;9.90;4.13;;;24.70;56.20;;;;;;5112700;28;20184;-71
2022/08/01 06:02:00;;;;;;;6.45;4.10;;;24.80;56.00;;;;;;5110472;28;21063;-71
2022/08/01 06:04:26;;;;;;;10.10;4.00;;;24.80;55.70;;;;;;5112980;28;20032;-71
2022/08/01 06:06:51;;;;;;;6.65;4.10;;;24.80;55.60;;;;;;5111669;28;20471;-71
2022/08/01 06:09:17;;;;;;;8.05;4.00;;;24.80;55.90;;;;;;5111164;28;20077;-71
2022/08/01 06:11:43;;;;;;;6.22;3.58;;;24.90;56.20;;;;;;5112200;28;20028;-71
2022/08/01 06:14:08;;;;;;;7.70;4.38;;;25.00;56.30;;;;;;5112934;28;20366;-71
2022/08/01 06:16:34;;;;;;;6.38;3.75;;;25.10;55.90;;;;;;5112858;28;20030;-71
2022/08/01 06:19:00;;;;;;;4.68;3.38;;;25.10;55.80;;;;;;5112769;28;20102;-71
2022/08/01 06:21:26;;;;;;;7.97;4.13;;;25.20;55.70;;;;;;5115454;28;20047;-70
2022/08/01 06:23:52;;;;;;;6.10;3.53;;;25.20;55.50;;;;;;5116487;28;20099;-71
2022/08/01 06:26:19;;;;;;;6.40;3.70;;;25.30;55.60;;;;;;5106828;27;20052;-71
2022/08/01 06:28:45;;;;;;;8.75;3.83;;;25.30;55.70;;;;;;5110788;28;20024;-71
2022/08/01 06:31:12;;;;;;;6.18;3.50;;;25.40;55.70;;;;;;5101136;28;20024;-71
2022/08/01 06:33:38;;;;;;;4.00;3.35;;;25.50;55.40;;;;;;5095906;28;20380;-71
2022/08/01 06:36:04;;;;;;;4.22;3.10;;;25.60;55.30;;;;;;5095819;28;20099;-71
2022/08/01 06:38:29;;;;;;;4.30;3.00;;;25.70;55.50;;;;;;5095631;28;20032;-71
2022/08/01 06:40:55;;;;;;;4.55;3.30;;;25.80;55.40;;;;;;5099076;28;20067;-71
2022/08/01 06:43:21;;;;;;;4.57;2.90;;;25.90;55.30;;;;;;5097035;28;20051;-71
2022/08/01 06:45:47;;;;;;;4.65;3.03;;;26.10;55.30;;;;;;5095516;28;20437;-71
2022/08/01 06:48:13;;;;;;;7.32;2.97;;;26.20;54.90;;;;;;5114699;28;20461;-71
2022/08/01 06:50:39;;;;;;;4.80;2.88;;;26.30;54.50;;;;;;5115864;28;20035;-71
2022/08/01 06:53:05;;;;;;;3.03;2.50;;;26.40;54.10;;;;;;5115913;28;20028;-71
2022/08/01 06:55:31;;;;;;;4.57;2.90;;;26.40;53.30;;;;;;5115814;28;20047;-71
2022/08/01 06:57:57;;;;;;;6.07;3.28;;;26.50;53.40;;;;;;5115847;28;20468;-71
2022/08/01 07:00:25;;;;;;;5.05;3.10;;;26.60;53.30;;;;;;5115676;28;20024;-71
2022/08/01 07:02:52;;;;;;;4.88;3.05;;;26.60;52.90;;;;;;5115760;28;20015;-71
2022/08/01 07:05:19;;;;;;;4.32;2.70;;;26.60;52.30;;;;;;5114337;28;20474;-71
2022/08/01 07:07:44;;;;;;;4.80;2.85;;;26.60;51.50;;;;;;5115579;28;20384;-71
2022/08/01 07:10:10;;;;;;;5.13;2.70;;;26.70;51.70;;;;;;5115638;28;20028;-71
2022/08/01 07:12:37;;;;;;;3.47;2.83;;;26.60;50.60;;;;;;5101164;28;20111;-71
2022/08/01 07:15:08;;;;;;;5.57;3.38;;;26.60;50.20;;;;;;5093851;28;20078;-71
2022/08/01 07:17:41;;;;;;;5.03;3.08;;;26.50;50.10;;;;;;5095119;28;20028;-70
2022/08/01 07:20:12;;;;;;;3.78;2.75;;;26.30;49.80;;;;;;5094992;28;20028;-71
2022/08/01 07:22:38;;;;;;;7.40;3.08;;;26.30;50.30;;;;;;5094871;28;20051;-71
2022/08/01 07:25:05;;;;;;;3.47;2.50;;;26.20;50.30;;;;;;5094898;28;20070;-71
2022/08/01 07:27:32;;;;;;;3.60;2.42;;;26.10;50.80;;;;;;5094866;28;20077;-71
2022/08/01 07:29:58;;;;;;;5.65;3.33;;;26.10;51.00;;;;;;5094677;28;20020;-71
2022/08/01 07:32:24;;;;;;;7.63;2.78;;;26.10;52.00;;;;;;5093582;28;20024;-71
2022/08/01 07:34:50;;;;;;;3.70;2.97;;;26.10;51.30;;;;;;5094473;28;20107;-71
2022/08/01 07:37:15;;;;;;;6.07;3.47;;;26.10;51.10;;;;;;5094460;28;20115;-71
2022/08/01 07:39:41;;;;;;;5.32;2.40;;;26.10;51.30;;;;;;5094425;28;20031;-71
2022/08/01 07:42:07;;;;;;;5.13;2.50;;;26.10;51.30;;;;;;5093314;28;20076;-71
2022/08/01 07:44:33;;;;;;;4.03;2.90;;;26.10;51.30;;;;;;5094359;28;20020;-70
2022/08/01 07:46:59;;;;;;;4.78;3.03;;;26.00;51.00;;;;;;5094462;28;20076;-71
2022/08/01 07:49:26;;;;;;;6.30;2.90;;;26.00;51.20;;;;;;5094233;28;20020;-71
2022/08/01 07:51:55;;;;;;;3.88;2.30;;;26.00;51.20;;;;;;5094179;28;20366;-71
2022/08/01 07:54:23;;;;;;;4.28;2.60;;;26.00;51.20;;;;;;5094300;28;20053;-71
2022/08/01 07:56:49;;;;;;;3.65;2.70;;;26.00;51.30;;;;;;5094220;28;20016;-71
2022/08/01 07:59:15;;;;;;;6.63;2.47;;;26.00;51.50;;;;;;5093992;28;20024;-71
2022/08/01 08:01:41;;;;;;;8.55;2.75;;;26.00;51.20;;;;;;5094041;28;20024;-71
2022/08/01 08:04:07;;;;;;;5.80;2.55;;;26.10;51.30;;;;;;5094062;28;20021;-71
2022/08/01 08:06:33;;;;;;;4.28;2.58;;;26.10;51.20;;;;;;5093977;28;20246;-71
2022/08/01 08:08:58;;;;;;;3.60;2.67;;;26.10;49.80;;;;;;5093975;28;20018;-71
2022/08/01 08:11:24;;;;;;;6.43;2.58;;;26.10;50.00;;;;;;5098655;28;20024;-71
2022/08/01 08:13:50;;;;;;;4.32;2.72;;;26.00;49.70;;;;;;5114020;28;20098;-70
2022/08/01 08:16:16;;;;;;;3.88;2.63;;;26.00;49.10;;;;;;5114193;28;20059;-71
2022/08/01 08:18:42;;;;;;;6.43;3.78;;;26.10;49.10;;;;;;5114224;28;20016;-71
2022/08/01 08:21:07;;;;;;;10.80;3.08;;;26.10;48.60;;;;;;5113803;28;20054;-71
2022/08/01 08:26:17;;;;;;;5.32;2.58;;;26.10;49.20;;;;;;5114156;28;20434;-71
2022/08/01 08:28:43;;;;;;;3.67;2.63;;;26.20;49.20;;;;;;5095879;28;20025;-71
2022/08/01 08:31:09;;;;;;;7.80;2.88;;;26.30;48.90;;;;;;5092274;28;20047;-71
2022/08/01 08:33:36;;;;;;;4.68;3.05;;;26.40;49.00;;;;;;5093367;28;20085;-71
2022/08/01 08:36:02;;;;;;;6.43;2.40;;;26.40;48.00;;;;;;5093455;28;20059;-71
2022/08/01 08:38:27;;;;;;;3.30;2.70;;;26.50;48.60;;;;;;5093253;28;20056;-71
2022/08/01 08:40:54;;;;;;;2.65;2.17;;;26.60;47.60;;;;;;5093231;28;20035;-71
2022/08/01 08:43:20;;;;;;;5.03;3.03;;;26.60;48.00;;;;;;5093069;28;20023;-71
2022/08/01 08:45:46;;;;;;;4.13;2.60;;;26.60;47.30;;;;;;5093001;28;20024;-71
2022/08/01 08:48:15;;;;;;;7.45;2.65;;;26.70;47.50;;;;;;5091902;28;20027;-71
2022/08/01 08:50:43;;;;;;;7.60;2.83;;;26.70;47.20;;;;;;5093218;28;20084;-71
2022/08/01 08:53:11;;;;;;;2.58;2.20;;;26.70;46.50;;;;;;5093091;28;20028;-71
2022/08/01 08:55:37;;;;;;;3.38;2.50;;;26.80;46.90;;;;;;5093199;28;20099;-71
2022/08/01 08:58:05;;;;;;;5.28;2.45;;;26.90;47.10;;;;;;5091831;28;20508;-71
2022/08/01 09:00:32;;;;;;;7.43;2.40;;;27.00;47.10;;;;;;5093142;28;20081;-71
2022/08/01 09:02:58;;;;;;;25.92;2.97;;;27.00;47.10;;;;;;5093073;28;20016;-71
2022/08/01 09:05:25;;;;;;;6.20;2.70;;;27.20;46.70;;;;;;5091820;28;20111;-71
2022/08/01 09:07:52;;;;;;;14.07;2.70;;;27.30;46.60;;;;;;5093152;28;20020;-71
2022/08/01 09:10:18;;;;;;;3.47;2.47;;;27.30;45.10;;;;;;5091715;28;20104;-71
2022/08/01 09:13:06;;;;;;;6.90;2.50;;;27.40;45.10;;;;;;5093292;28;20106;-70
2022/08/01 09:15:40;;;;;;;3.13;2.72;;;27.50;45.30;;;;;;5093068;28;20539;-71
2022/08/01 09:18:06;;;;;;;4.13;2.75;;;27.50;44.50;;;;;;5093054;28;20028;-71
2022/08/01 09:20:34;;;;;;;2.85;2.42;;;27.60;44.20;;;;;;5092929;28;20068;-71
2022/08/01 09:23:00;;;;;;;3.33;2.83;;;27.60;44.70;;;;;;5092937;28;20431;-71
2022/08/01 09:25:32;;;;;;;7.53;2.70;;;27.60;44.50;;;;;;5092733;28;20020;-71
2022/08/01 09:28:05;;;;;;;8.40;3.00;;;27.70;45.00;;;;;;5092634;28;20055;-71
2022/08/01 09:30:38;;;;;;;4.80;2.70;;;27.80;44.60;;;;;;5091476;28;20043;-71
2022/08/01 09:33:05;;;;;;;7.47;2.80;;;27.90;44.90;;;;;;5092806;28;20681;-71
2022/08/01 09:35:36;;;;;;;4.07;2.53;;;27.90;44.90;;;;;;5092802;28;20538;-71
2022/08/01 09:38:16;;;;;;;3.88;2.72;;;28.00;44.20;;;;;;5092794;28;20473;-71
2022/08/01 09:40:56;;;;;;;3.83;2.28;;;28.00;43.90;;;;;;5092739;28;20020;-71
2022/08/01 09:43:24;;;;;;;5.60;2.45;;;28.10;43.70;;;;;;5098995;28;20019;-71
2022/08/01 09:45:51;;;;;;;3.97;2.35;;;28.20;43.60;;;;;;5111577;28;20015;-71
2022/08/01 09:48:17;;;;;;;4.88;3.03;;;28.20;44.00;;;;;;5111437;28;20030;-71
2022/08/01 09:50:48;;;;;;;4.00;2.40;;;28.30;42.90;;;;;;5111771;28;20067;-71
2022/08/01 09:53:14;;;;;;;3.42;2.50;;;28.30;42.60;;;;;;5112686;28;20038;-71
2022/08/01 09:55:41;;;;;;;15.38;2.60;;;28.40;43.10;;;;;;5114880;28;20039;-71
2022/08/01 09:58:08;;;;;;;4.93;2.97;;;28.40;43.30;;;;;;5115645;28;20028;-71
2022/08/01 10:00:35;;;;;;;3.78;2.40;;;28.50;42.90;;;;;;5116846;28;20024;-71
2022/08/01 10:03:22;;;;;;;8.77;2.70;;;28.50;43.10;;;;;;5116762;28;20026;-71
2022/08/01 10:05:48;;;;;;;5.80;2.95;;;28.50;43.30;;;;;;5116756;28;20012;-71
2022/08/01 10:08:14;;;;;;;8.95;2.85;;;28.60;43.20;;;;;;5116776;28;20058;-71
2022/08/01 10:10:40;;;;;;;10.52;2.92;;;28.60;42.90;;;;;;5116644;28;20051;-71
2022/08/01 10:13:07;;;;;;;5.03;2.08;;;28.70;43.30;;;;;;5114857;27;20032;-71
2022/08/01 10:15:34;;;;;;;5.28;2.65;;;28.70;43.10;;;;;;5116537;28;20376;-71
2022/08/01 10:18:03;;;;;;;5.63;2.65;;;28.70;43.00;;;;;;5116575;28;20058;-71
2022/08/01 10:20:31;;;;;;;4.78;2.75;;;28.80;42.80;;;;;;5116285;28;20016;-71
2022/08/01 10:23:04;;;;;;;3.17;2.50;;;28.80;42.90;;;;;;5116497;28;20026;-71
2022/08/01 10:25:36;;;;;;;3.55;2.50;;;28.90;43.10;;;;;;5101605;28;20019;-71
2022/08/01 10:28:13;;;;;;;4.25;2.22;;;29.00;42.70;;;;;;5095926;28;20021;-71
2022/08/01 10:30:42;;;;;;;9.65;2.35;;;29.00;42.60;;;;;;5095983;28;20028;-71
2022/08/01 10:33:10;;;;;;;2.60;1.98;;;29.10;42.60;;;;;;5095795;28;20016;-71
2022/08/01 10:35:38;;;;;;;2.60;1.98;;;29.20;42.70;;;;;;5095693;28;20024;-71
2022/08/01 10:38:05;;;;;;;5.60;3.00;;;29.20;42.30;;;;;;5095813;28;20032;-71
2022/08/01 10:40:32;;;;;;;4.72;3.00;;;29.30;41.60;;;;;;5095631;28;20020;-71
2022/08/01 10:42:58;;;;;;;3.05;2.55;;;29.30;41.50;;;;;;5094223;28;20020;-71
2022/08/01 10:45:26;;;;;;;3.47;2.45;;;29.40;41.80;;;;;;5095350;28;20044;-71
2022/08/01 10:48:09;;;;;;;5.85;2.22;;;29.50;41.50;;;;;;5095586;28;20047;-71
2022/08/01 10:50:39;;;;;;;5.77;2.43;;;29.50;41.50;;;;;;5095692;28;20229;-71
2022/08/01 10:53:14;;;;;;;3.00;2.33;;;29.60;41.70;;;;;;5095462;28;20316;-71
2022/08/01 10:56:00;;;;;;;2.35;2.13;;;29.70;41.30;;;;;;5094113;28;20473;-71
2022/08/01 10:58:32;;;;;;;3.00;2.38;;;29.70;41.30;;;;;;5095428;28;20031;-71
2022/08/01 11:01:24;;;;;;;3.13;2.55;;;29.80;40.50;;;;;;5095469;28;20028;-71
2022/08/01 11:04:09;;;;;;;2.90;2.17;;;29.80;40.50;;;;;;5095260;28;20027;-71
2022/08/01 11:06:34;;;;;;;5.63;2.70;;;29.90;41.30;;;;;;5095171;28;20047;-71
2022/08/01 11:09:14;;;;;;;2.63;2.10;;;30.00;39.80;;;;;;5095143;28;20068;-71
2022/08/01 11:12:00;;;;;;;5.40;2.25;;;30.20;40.10;;;;;;5094128;28;20024;-71
2022/08/01 11:14:26;;;;;;;2.95;2.10;;;30.50;40.50;;;;;;5095120;28;20024;-71
2022/08/01 11:16:51;;;;;;;3.55;2.17;;;30.70;40.30;;;;;;5095174;28;20073;-71
2022/08/01 11:19:17;;;;;;;11.70;2.20;;;31.00;39.20;;;;;;5094955;28;20508;-71
2022/08/01 11:21:52;;;;;;;3.03;2.33;;;31.20;38.00;;;;;;5093533;28;20123;-71
2022/08/01 11:24:47;;;;;;;3.65;2.00;;;31.40;37.80;;;;;;5093556;28;20024;-71
2022/08/01 11:27:25;;;;;;;3.53;2.17;;;31.70;38.40;;;;;;5089682;28;20081;-71
2022/08/01 11:30:09;;;;;;;4.13;2.20;;;31.90;36.70;;;;;;5108792;28;20031;-71
2022/08/01 11:32:48;;;;;;;;;;;32.00;36.80;;;;;;5115478;28;20028;-72
2022/08/01 11:35:14;;;;;;;3.08;1.88;;;32.10;37.90;;;;;;5115033;28;19904;-71
2022/08/01 11:37:40;;;;;;;2.42;1.75;;;32.20;34.90;;;;;;5115132;28;20092;-71
2022/08/01 11:40:28;;;;;;;3.03;1.80;;;32.30;35.40;;;;;;5115255;28;20019;-71
2022/08/01 11:43:16;;;;;;;9.40;2.15;;;32.40;36.10;;;;;;5097028;28;20021;-71
2022/08/01 11:45:50;;;;;;;5.15;2.13;;;32.50;36.20;;;;;;5094444;28;20027;-71
2022/08/01 11:48:21;;;;;;;2.15;1.80;;;32.60;34.70;;;;;;5094430;28;20070;-72
2022/08/01 11:50:47;;;;;;;2.47;1.92;;;32.70;34.80;;;;;;5094483;28;20024;-71
2022/08/01 11:53:18;;;;;;;3.45;1.67;;;32.80;34.40;;;;;;5094387;28;20024;-71
2022/08/01 11:55:50;;;;;;;2.65;1.83;;;32.80;33.80;;;;;;5094411;28;20023;-72
2022/08/01 11:58:22;;;;;;;2.95;2.17;;;32.90;33.60;;;;;;5105587;28;20053;-71
2022/08/01 12:00:56;;;;;;;2.15;1.85;;;33.00;32.70;;;;;;5113123;28;20439;-71
2022/08/01 12:03:31;;;;;;;3.50;1.83;;;33.00;33.20;;;;;;5114538;28;20378;-71
2022/08/01 12:05:57;;;;;;;3.50;2.40;;;33.00;32.50;;;;;;5113228;28;20023;-71
2022/08/01 12:08:33;;;;;;;2.72;1.83;;;33.00;32.40;;;;;;5114445;28;20027;-71
2022/08/01 12:11:03;;;;;;;4.47;1.98;;;32.90;32.70;;;;;;5112814;28;20102;-71
2022/08/01 12:13:43;;;;;;;2.20;1.75;;;32.90;32.20;;;;;;5093834;28;20721;-72
2022/08/01 12:16:10;;;;;;;7.70;1.60;;;32.90;32.30;;;;;;5093897;28;20031;-71
2022/08/01 12:18:40;;;;;;;2.92;1.88;;;32.90;32.30;;;;;;5093308;28;20020;-71
2022/08/01 12:21:06;;;;;;;5.40;1.90;;;32.90;31.60;;;;;;5093479;28;20040;-71
2022/08/01 12:23:32;;;;;;;11.27;2.08;;;32.90;31.80;;;;;;5092506;28;20104;-71
2022/08/01 12:25:58;;;;;;;14.65;2.10;;;33.00;31.80;;;;;;5092434;28;20073;-72
2022/08/01 12:28:24;;;;;;;3.03;1.77;;;33.00;31.90;;;;;;5093765;28;20509;-71
2022/08/01 12:30:50;;;;;;;3.90;1.80;;;33.10;32.60;;;;;;5093622;28;20047;-71
2022/08/01 12:33:20;;;;;;;4.05;1.58;;;33.20;31.80;;;;;;5093539;28;20473;-71
2022/08/01 12:35:47;;;;;;;2.97;1.80;;;33.20;32.20;;;;;;5093438;28;20024;-72
2022/08/01 12:38:22;;;;;;;2.28;1.65;;;33.20;31.90;;;;;;5092259;28;20054;-71
2022/08/01 12:40:48;;;;;;;1.83;1.65;;;33.10;31.50;;;;;;5093392;28;20017;-71
2022/08/01 12:43:20;;;;;;;2.22;1.67;;;33.00;31.60;;;;;;5111694;28;20055;-71
2022/08/01 12:45:48;;;;;;;2.95;1.55;;;32.90;32.00;;;;;;5113665;28;20023;-72
2022/08/01 12:48:17;;;;;;;3.00;1.80;;;32.90;32.60;;;;;;5113569;28;20023;-71
2022/08/01 12:50:45;;;;;;;2.17;1.90;;;32.80;33.40;;;;;;5113630;28;20024;-71
2022/08/01 12:53:14;;;;;;;1.63;1.52;;;32.60;32.50;;;;;;5113735;28;20469;-71
2022/08/01 12:55:50;;;;;;;1.67;1.58;;;32.60;33.00;;;;;;5112387;28;20362;-71
2022/08/01 12:58:17;;;;;;;2.67;1.58;;;32.60;33.30;;;;;;5112361;28;20080;-71